Time;durP1;ratioP1;P1;durP2;ratioP2;P2;SDS_P1;SDS_P2;PMS_P1;PMS_P2;Temp;Humidity;BMP_temperature;BMP_pressure;BME280_temperature;BME280_humidity;BME280_pressure;Samples;Min_cycle;Max_cycle;Signal;HPM_P1;HPM_P2
2022/09/07 00:02:31;;;;;;;3.60;1.80;;;14.50;99.90;;;;;;2622019;46;20860;31
2022/09/07 00:05:05;;;;;;;5.40;1.83;;;14.50;99.90;;;;;;2603492;54;21122;31
2022/09/07 00:07:44;;;;;;;5.25;1.98;;;14.50;99.90;;;;;;2603473;54;20158;31
2022/09/07 00:10:16;;;;;;;5.40;2.20;;;14.40;99.90;;;;;;2603378;54;22824;31
2022/09/07 00:12:52;;;;;;;5.10;2.08;;;14.40;99.90;;;;;;2622105;46;20054;31
2022/09/07 00:15:28;;;;;;;4.18;2.30;;;14.40;99.90;;;;;;2603720;54;20026;31
2022/09/07 00:18:04;;;;;;;4.97;2.30;;;14.40;99.90;;;;;;2603902;54;20038;31
2022/09/07 00:20:38;;;;;;;;;;;14.40;99.90;;;;;;2603996;54;20262;31
2022/09/07 00:23:16;;;;;;;6.50;2.40;;;14.30;99.90;;;;;;2603726;54;19935;31
2022/09/07 00:25:52;;;;;;;5.15;2.30;;;14.30;99.90;;;;;;2603734;54;20851;31
2022/09/07 00:28:27;;;;;;;3.93;1.83;;;14.20;99.90;;;;;;2603661;54;20864;31
2022/09/07 00:31:03;;;;;;;5.47;2.55;;;14.20;99.90;;;;;;2603381;54;20029;31
2022/09/07 00:33:38;;;;;;;;;;;14.10;99.90;;;;;;2603904;54;20081;31
2022/09/07 00:36:13;;;;;;;5.37;2.90;;;14.10;99.90;;;;;;2603797;54;19947;31
2022/09/07 00:38:51;;;;;;;4.72;2.53;;;14.10;99.90;;;;;;2603718;54;20748;31
2022/09/07 00:41:26;;;;;;;6.90;2.60;;;14.10;99.90;;;;;;2621983;46;20037;31
2022/09/07 00:44:22;;;;;;;4.82;2.33;;;14.00;99.90;;;;;;2603806;54;20046;31
2022/09/07 00:46:57;;;;;;;5.20;2.10;;;14.00;99.90;;;;;;2603471;54;20030;31
2022/09/07 00:49:33;;;;;;;4.85;2.55;;;14.00;99.90;;;;;;2702194;39;21108;31
2022/09/07 00:52:09;;;;;;;6.97;2.58;;;14.00;99.90;;;;;;2603462;54;20875;31
2022/09/07 00:54:46;;;;;;;;;;;14.00;99.90;;;;;;2603787;54;20031;31
2022/09/07 00:57:21;;;;;;;7.70;1.98;;;14.00;99.90;;;;;;2603736;54;19938;31
2022/09/07 00:59:56;;;;;;;5.13;2.28;;;14.00;99.90;;;;;;2603629;54;20073;31
2022/09/07 01:02:33;;;;;;;5.53;2.20;;;13.90;99.90;;;;;;2621976;46;20030;31
2022/09/07 01:05:16;;;;;;;5.70;2.75;;;14.00;99.90;;;;;;2621926;46;20153;31
2022/09/07 01:07:53;;;;;;;4.43;2.22;;;13.90;99.90;;;;;;2603660;54;20847;31
2022/09/07 01:10:29;;;;;;;6.70;3.00;;;13.90;99.90;;;;;;2603686;54;20057;31
2022/09/07 01:13:07;;;;;;;6.32;2.35;;;13.90;99.90;;;;;;2603384;54;20057;31
2022/09/07 01:15:46;;;;;;;5.28;2.83;;;13.80;99.90;;;;;;2622283;46;20924;31
2022/09/07 01:18:25;;;;;;;6.10;2.60;;;13.80;99.90;;;;;;2603566;54;20034;31
2022/09/07 01:21:24;;;;;;;6.43;3.33;;;13.80;99.90;;;;;;2603576;54;25057;31
2022/09/07 01:24:18;;;;;;;8.50;2.70;;;13.80;99.90;;;;;;2603296;54;20839;31
2022/09/07 01:27:23;;;;;;;4.70;1.90;;;13.70;99.90;;;;;;2603420;54;20030;31
2022/09/07 01:30:04;;;;;;;5.72;2.17;;;13.70;99.90;;;;;;2603745;54;20869;31
2022/09/07 01:32:48;;;;;;;4.90;2.50;;;13.70;99.90;;;;;;2603530;54;20869;31
2022/09/07 01:35:24;;;;;;;9.50;2.80;;;13.70;99.90;;;;;;2702228;39;21039;31
2022/09/07 01:38:02;;;;;;;;;;;13.70;99.90;;;;;;2603869;54;20818;31
2022/09/07 01:40:37;;;;;;;;;;;13.70;99.90;;;;;;2622288;46;19942;31
2022/09/07 01:43:14;;;;;;;4.57;2.10;;;13.70;99.90;;;;;;2603369;54;19997;31
2022/09/07 01:45:52;;;;;;;5.77;2.63;;;13.70;99.90;;;;;;2602703;54;20026;31
2022/09/07 01:48:28;;;;;;;5.20;2.35;;;13.60;99.90;;;;;;2621806;46;20050;31
2022/09/07 01:51:03;;;;;;;9.30;2.72;;;13.60;99.90;;;;;;2603272;54;20038;31
2022/09/07 01:53:40;;;;;;;9.35;3.20;;;13.70;99.90;;;;;;2603574;54;20030;31
2022/09/07 01:56:15;;;;;;;4.40;2.55;;;13.60;99.90;;;;;;2621995;46;20042;31
2022/09/07 01:58:53;;;;;;;4.47;2.47;;;13.60;99.90;;;;;;2621478;46;20073;31
2022/09/07 02:01:32;;;;;;;6.00;2.60;;;13.60;99.90;;;;;;2603467;54;19938;31
2022/09/07 02:04:09;;;;;;;5.70;2.40;;;13.60;99.90;;;;;;2603455;54;20876;31
2022/09/07 02:06:44;;;;;;;5.43;2.38;;;13.60;99.90;;;;;;2603260;54;20882;31
2022/09/07 02:09:21;;;;;;;5.07;2.53;;;13.60;99.90;;;;;;2603303;54;20030;31
2022/09/07 02:11:58;;;;;;;5.90;2.10;;;13.60;99.90;;;;;;2621219;46;20029;31
2022/09/07 02:14:34;;;;;;;6.07;2.55;;;13.60;99.90;;;;;;2621513;46;20906;31
2022/09/07 02:17:08;;;;;;;5.32;2.50;;;13.60;99.90;;;;;;2603325;54;20030;31
2022/09/07 02:19:48;;;;;;;6.87;2.70;;;13.60;99.90;;;;;;2621796;46;20036;31
2022/09/07 02:22:26;;;;;;;4.85;2.50;;;13.60;99.90;;;;;;2603315;54;20041;31
2022/09/07 02:25:01;;;;;;;5.65;2.83;;;13.60;99.90;;;;;;2603140;54;20834;31
2022/09/07 02:27:39;;;;;;;4.13;1.95;;;13.60;99.90;;;;;;2621519;46;19940;31
2022/09/07 02:30:19;;;;;;;5.97;2.40;;;13.50;99.90;;;;;;2603296;54;20026;31
2022/09/07 02:32:51;;;;;;;4.93;2.28;;;13.60;99.90;;;;;;2621246;46;20064;31
2022/09/07 02:35:29;;;;;;;5.67;2.37;;;13.50;99.90;;;;;;2621904;46;20033;31
2022/09/07 02:38:07;;;;;;;5.55;2.30;;;13.50;99.90;;;;;;2621453;46;20026;31
2022/09/07 02:40:42;;;;;;;4.32;2.30;;;13.50;99.90;;;;;;2621643;46;20038;31
2022/09/07 02:43:22;;;;;;;7.70;2.50;;;13.50;99.90;;;;;;2621521;46;20097;31
2022/09/07 02:46:08;;;;;;;6.32;2.60;;;13.50;99.90;;;;;;2621642;47;20057;31
2022/09/07 02:48:44;;;;;;;;;;;13.50;99.90;;;;;;2603320;54;20144;31
2022/09/07 02:51:25;;;;;;;6.10;2.70;;;13.50;99.90;;;;;;2602997;54;20809;31
2022/09/07 02:54:17;;;;;;;4.70;2.65;;;13.50;99.90;;;;;;2602954;54;20045;31
2022/09/07 02:56:56;;;;;;;6.00;2.45;;;13.60;99.90;;;;;;2603030;54;20170;31
2022/09/07 02:59:41;;;;;;;7.55;2.30;;;13.50;99.90;;;;;;2603012;54;20181;31
2022/09/07 03:02:19;;;;;;;8.30;2.42;;;13.50;99.90;;;;;;2603218;54;20790;31
2022/09/07 03:04:58;;;;;;;5.47;2.67;;;13.50;99.90;;;;;;2603000;54;20761;31
2022/09/07 03:07:37;;;;;;;4.22;2.28;;;13.50;99.90;;;;;;2621725;47;20309;31
2022/09/07 03:10:17;;;;;;;5.10;2.20;;;13.50;99.90;;;;;;2603073;54;19935;31
2022/09/07 03:12:52;;;;;;;3.77;2.30;;;13.50;99.90;;;;;;2602822;54;20023;31
2022/09/07 03:15:28;;;;;;;4.60;2.25;;;13.40;99.90;;;;;;2602997;54;20026;31
2022/09/07 03:18:03;;;;;;;6.90;2.03;;;13.40;99.90;;;;;;2603104;54;19935;31
2022/09/07 03:20:38;;;;;;;4.43;2.17;;;13.40;99.90;;;;;;2603047;54;20090;31
2022/09/07 03:23:17;;;;;;;5.18;2.58;;;13.40;99.90;;;;;;2622617;46;20123;31
2022/09/07 03:25:52;;;;;;;6.35;2.40;;;13.40;99.90;;;;;;2622709;46;20049;31
2022/09/07 03:28:28;;;;;;;4.75;2.30;;;13.40;99.90;;;;;;2603635;54;20099;31
2022/09/07 03:31:03;;;;;;;5.85;2.45;;;13.30;99.90;;;;;;2603767;54;20092;31
2022/09/07 03:33:38;;;;;;;5.20;2.30;;;13.30;99.90;;;;;;2604049;54;20027;31
2022/09/07 03:36:12;;;;;;;5.45;2.63;;;13.30;99.90;;;;;;2603764;54;19989;31
2022/09/07 03:38:51;;;;;;;7.80;2.75;;;13.30;99.90;;;;;;2622618;46;20053;31
2022/09/07 03:41:25;;;;;;;7.65;2.55;;;13.30;99.90;;;;;;2621976;46;20918;31
2022/09/07 03:43:59;;;;;;;9.52;3.60;;;13.20;99.90;;;;;;2603862;54;19934;31
2022/09/07 03:46:33;;;;;;;5.72;2.55;;;13.20;99.90;;;;;;2603738;54;20100;31
2022/09/07 03:49:09;;;;;;;4.32;2.53;;;13.20;99.90;;;;;;2603653;54;20128;31
2022/09/07 03:51:44;;;;;;;;;;;13.10;99.90;;;;;;2622256;46;20034;31
2022/09/07 03:54:21;;;;;;;6.40;2.55;;;13.10;99.90;;;;;;2603646;54;20809;31
2022/09/07 03:56:56;;;;;;;8.45;2.25;;;13.10;99.90;;;;;;2603774;54;20872;31
2022/09/07 03:59:31;;;;;;;7.38;2.00;;;13.00;99.90;;;;;;2622489;46;20081;31
2022/09/07 04:02:06;;;;;;;4.05;2.10;;;13.00;99.90;;;;;;2603847;54;20031;31
2022/09/07 04:04:41;;;;;;;2.97;1.63;;;13.00;99.90;;;;;;2622106;46;20026;31
2022/09/07 04:07:17;;;;;;;7.63;1.75;;;12.90;99.90;;;;;;2603417;54;20026;31
2022/09/07 04:09:58;;;;;;;6.10;2.22;;;12.90;99.90;;;;;;2622140;46;20094;31
2022/09/07 04:12:37;;;;;;;4.30;2.10;;;12.90;99.90;;;;;;2621527;46;20950;31
2022/09/07 04:15:13;;;;;;;3.80;1.92;;;12.90;99.90;;;;;;2603468;54;20862;31
2022/09/07 04:17:48;;;;;;;6.55;2.35;;;12.90;99.90;;;;;;2603746;54;20117;31
2022/09/07 04:20:24;;;;;;;4.18;2.35;;;12.90;99.90;;;;;;2603499;54;20879;31
2022/09/07 04:22:58;;;;;;;8.30;2.20;;;12.80;99.90;;;;;;2603540;54;20795;31
2022/09/07 04:25:35;;;;;;;3.70;1.90;;;12.80;99.90;;;;;;2603510;54;20910;31
2022/09/07 04:28:09;;;;;;;6.80;2.20;;;12.80;99.90;;;;;;2603496;54;20056;31
2022/09/07 04:30:45;;;;;;;6.15;2.10;;;12.80;99.90;;;;;;2603398;54;20867;31
2022/09/07 04:33:20;;;;;;;4.60;2.20;;;12.80;99.90;;;;;;2603360;54;20920;31
2022/09/07 04:35:55;;;;;;;;;;;12.80;99.90;;;;;;2622047;46;20099;31
2022/09/07 04:38:30;;;;;;;5.78;1.75;;;12.70;99.90;;;;;;2622330;46;19934;31
2022/09/07 04:41:08;;;;;;;8.40;3.37;;;12.80;99.90;;;;;;2603527;54;20857;31
2022/09/07 04:43:48;;;;;;;11.52;3.33;;;12.80;99.90;;;;;;2603429;54;20022;31
2022/09/07 04:46:22;;;;;;;8.95;3.30;;;12.80;99.90;;;;;;2603368;54;20034;31
2022/09/07 04:48:57;;;;;;;5.57;3.45;;;12.80;99.90;;;;;;2603192;54;20868;31
2022/09/07 04:51:33;;;;;;;30.75;12.75;;;12.70;99.90;;;;;;2603458;54;20178;31
2022/09/07 04:54:09;;;;;;;29.40;12.30;;;12.80;99.90;;;;;;2603286;54;20102;31
2022/09/07 04:56:47;;;;;;;34.72;12.80;;;12.80;99.90;;;;;;2603607;54;20026;31
2022/09/07 04:59:22;;;;;;;29.53;10.93;;;12.80;99.90;;;;;;2621416;46;20946;31
2022/09/07 05:01:58;;;;;;;30.47;9.13;;;12.80;99.90;;;;;;2603358;54;20838;31
2022/09/07 05:04:33;;;;;;;15.05;5.65;;;12.90;99.90;;;;;;2621820;46;20101;31
2022/09/07 05:07:09;;;;;;;11.70;5.20;;;12.90;99.90;;;;;;2603496;54;20095;31
2022/09/07 05:09:44;;;;;;;5.38;2.50;;;13.00;99.90;;;;;;2603485;54;20046;31
2022/09/07 05:12:21;;;;;;;9.57;4.10;;;13.00;99.90;;;;;;2602992;54;20757;31
2022/09/07 05:14:56;;;;;;;8.35;3.00;;;13.00;99.90;;;;;;2621980;46;20318;31
2022/09/07 05:17:30;;;;;;;5.22;2.22;;;13.00;99.90;;;;;;2603255;54;20968;31
2022/09/07 05:20:05;;;;;;;8.35;3.05;;;13.00;99.90;;;;;;2603537;54;20030;31
2022/09/07 05:22:40;;;;;;;4.50;2.70;;;13.10;99.90;;;;;;2622248;46;20089;31
2022/09/07 05:25:14;;;;;;;5.60;2.08;;;13.00;99.90;;;;;;2603458;54;20058;31
2022/09/07 05:27:51;;;;;;;7.35;2.38;;;13.10;99.90;;;;;;2621557;46;20982;31
2022/09/07 05:30:25;;;;;;;8.27;2.25;;;13.10;99.90;;;;;;2603585;54;20875;31
2022/09/07 05:33:19;;;;;;;7.10;2.35;;;13.10;99.90;;;;;;2603199;54;20883;31
2022/09/07 05:35:58;;;;;;;7.53;3.70;;;13.10;99.90;;;;;;2603570;54;20945;31
2022/09/07 05:38:32;;;;;;;10.68;4.63;;;13.20;99.90;;;;;;2603316;54;20052;31
2022/09/07 05:41:13;;;;;;;5.93;2.00;;;13.30;99.90;;;;;;2603278;54;20145;31
2022/09/07 05:43:50;;;;;;;7.60;2.38;;;13.40;99.90;;;;;;2621775;46;20894;31
2022/09/07 05:46:45;;;;;;;4.82;2.00;;;13.50;99.90;;;;;;2603577;54;20026;31
2022/09/07 05:49:20;;;;;;;9.20;3.60;;;13.70;99.90;;;;;;2603293;54;20031;31
2022/09/07 05:51:54;;;;;;;5.53;1.90;;;14.00;99.90;;;;;;2603535;54;20298;31
2022/09/07 05:54:28;;;;;;;5.22;2.03;;;14.30;99.90;;;;;;2603200;54;20023;31
2022/09/07 05:57:02;;;;;;;7.23;1.90;;;14.60;99.90;;;;;;2602929;54;20899;31
2022/09/07 05:59:38;;;;;;;4.75;2.42;;;14.90;99.90;;;;;;2603369;54;20027;31
2022/09/07 06:02:14;;;;;;;4.90;2.00;;;15.20;99.90;;;;;;2603412;54;20033;31
2022/09/07 06:04:49;;;;;;;6.95;2.40;;;15.40;99.90;;;;;;2603458;54;20030;31
2022/09/07 06:07:24;;;;;;;5.63;1.83;;;15.70;99.90;;;;;;2622034;46;20148;31
2022/09/07 06:09:58;;;;;;;6.32;1.83;;;16.00;99.90;;;;;;2603125;54;20805;31
2022/09/07 06:12:52;;;;;;;7.00;2.10;;;16.20;99.90;;;;;;2603331;54;20027;31
2022/09/07 06:15:28;;;;;;;10.02;2.28;;;16.40;99.90;;;;;;2603200;54;20027;31
2022/09/07 06:18:03;;;;;;;5.32;1.90;;;16.60;99.90;;;;;;2603436;54;20916;31
2022/09/07 06:20:37;;;;;;;10.90;2.55;;;16.80;99.90;;;;;;2603204;54;20145;31
2022/09/07 06:23:11;;;;;;;6.68;2.55;;;17.00;99.90;;;;;;2603002;54;25031;31
2022/09/07 06:25:50;;;;;;;5.50;1.92;;;17.20;99.90;;;;;;2603259;54;20835;31
2022/09/07 06:28:29;;;;;;;6.20;2.53;;;17.30;99.90;;;;;;2621409;46;21017;31
2022/09/07 06:31:06;;;;;;;5.25;2.30;;;17.40;99.90;;;;;;2621584;46;20077;31
2022/09/07 06:33:41;;;;;;;6.90;2.23;;;17.50;99.90;;;;;;2603036;54;20875;31
2022/09/07 06:36:16;;;;;;;5.38;2.20;;;17.60;99.90;;;;;;2603182;54;20081;31
2022/09/07 06:38:51;;;;;;;8.48;2.35;;;17.70;99.90;;;;;;2621824;46;20082;31
2022/09/07 06:41:27;;;;;;;5.68;2.10;;;17.80;99.90;;;;;;2603046;54;20222;31
2022/09/07 06:44:25;;;;;;;7.75;2.20;;;17.80;99.90;;;;;;2621761;46;20902;31
2022/09/07 06:47:01;;;;;;;8.20;2.80;;;18.00;99.90;;;;;;2603165;54;20038;31
2022/09/07 06:49:37;;;;;;;5.75;2.40;;;18.10;99.90;;;;;;2621252;47;20934;31
2022/09/07 06:52:11;;;;;;;7.63;2.30;;;18.20;99.90;;;;;;2602973;54;20892;31
2022/09/07 06:54:45;;;;;;;6.10;2.55;;;18.40;99.90;;;;;;2602878;54;20089;31
2022/09/07 06:57:35;;;;;;;8.07;3.17;;;18.50;99.90;;;;;;2603861;54;20086;31
2022/09/07 07:00:11;;;;;;;8.13;2.00;;;18.60;99.90;;;;;;2603960;54;20845;31
2022/09/07 07:02:48;;;;;;;5.32;2.38;;;18.70;99.90;;;;;;2603703;54;20932;31
2022/09/07 07:05:22;;;;;;;5.50;2.50;;;18.80;99.90;;;;;;2622235;46;20026;31
2022/09/07 07:07:56;;;;;;;7.78;3.00;;;19.00;99.90;;;;;;2622026;46;20879;31
2022/09/07 07:10:30;;;;;;;5.90;2.42;;;19.10;99.90;;;;;;2603751;54;20005;31
2022/09/07 07:13:05;;;;;;;6.10;2.40;;;19.20;99.90;;;;;;2622039;46;20938;31
2022/09/07 07:15:39;;;;;;;7.88;2.08;;;19.30;99.90;;;;;;2622331;46;20781;31
2022/09/07 07:18:16;;;;;;;8.20;2.78;;;19.40;99.90;;;;;;2603836;54;20035;31
2022/09/07 07:21:04;;;;;;;4.75;2.42;;;19.70;99.90;;;;;;2603807;54;20763;31
2022/09/07 07:23:39;;;;;;;5.43;2.83;;;19.80;99.90;;;;;;2622382;46;20069;31
2022/09/07 07:26:14;;;;;;;9.40;2.60;;;19.80;99.90;;;;;;2603957;54;20875;31
2022/09/07 07:28:49;;;;;;;5.60;2.63;;;20.00;99.90;;;;;;2603681;54;20153;31
2022/09/07 07:31:31;;;;;;;7.78;2.70;;;20.20;99.90;;;;;;2603917;54;20027;31
2022/09/07 07:34:08;;;;;;;;;;;20.10;99.90;;;;;;2604159;54;20880;31
2022/09/07 07:36:43;;;;;;;9.20;2.90;;;20.20;99.90;;;;;;2603868;54;19950;31
2022/09/07 07:39:17;;;;;;;5.97;2.42;;;20.40;99.90;;;;;;2622184;46;20030;31
2022/09/07 07:42:12;;;;;;;9.55;3.10;;;20.50;99.90;;;;;;2603789;54;20030;31
2022/09/07 07:44:46;;;;;;;8.50;2.90;;;20.70;99.90;;;;;;2603775;54;20026;31
2022/09/07 07:47:21;;;;;;;8.82;2.90;;;20.90;99.90;;;;;;2621793;46;20026;31
2022/09/07 07:49:57;;;;;;;7.75;2.60;;;21.00;99.90;;;;;;2603608;54;20027;31
2022/09/07 07:52:53;;;;;;;6.05;2.60;;;21.10;99.90;;;;;;2603677;54;20557;31
2022/09/07 07:55:48;;;;;;;10.05;2.60;;;21.10;99.90;;;;;;2603867;54;20030;31
2022/09/07 07:58:23;;;;;;;11.35;4.05;;;21.30;99.90;;;;;;2622121;46;20030;31
2022/09/07 08:00:57;;;;;;;6.00;3.20;;;21.30;99.90;;;;;;2603914;54;20872;31
2022/09/07 08:03:31;;;;;;;8.18;3.22;;;21.50;99.90;;;;;;2621869;46;20835;31
2022/09/07 08:06:12;;;;;;;7.93;3.03;;;21.40;99.90;;;;;;2603875;54;20046;31
2022/09/07 08:08:46;;;;;;;7.30;3.08;;;21.40;99.90;;;;;;2603647;54;20026;31
2022/09/07 08:11:21;;;;;;;10.88;3.50;;;21.40;99.90;;;;;;2603517;54;20042;31
2022/09/07 08:13:58;;;;;;;11.73;3.10;;;21.50;99.90;;;;;;2603450;54;21417;31
2022/09/07 08:16:33;;;;;;;7.17;3.47;;;21.70;99.90;;;;;;2603778;54;20026;31
2022/09/07 08:19:08;;;;;;;12.40;3.95;;;21.80;99.90;;;;;;2603570;54;20077;31
2022/09/07 08:21:44;;;;;;;7.18;3.55;;;22.10;99.90;;;;;;2603595;54;20085;31
2022/09/07 08:24:19;;;;;;;6.05;3.20;;;22.30;99.90;;;;;;2622340;46;20897;31
2022/09/07 08:26:54;;;;;;;7.32;3.28;;;22.40;99.90;;;;;;2603567;54;20746;31
2022/09/07 08:29:28;;;;;;;10.80;3.58;;;22.50;99.90;;;;;;2622186;46;20089;31
2022/09/07 08:32:08;;;;;;;15.43;4.22;;;22.50;99.90;;;;;;2621832;46;20874;31
2022/09/07 08:34:43;;;;;;;6.60;3.55;;;22.60;99.90;;;;;;2622093;46;20026;31
2022/09/07 08:37:19;;;;;;;7.95;3.80;;;22.70;99.90;;;;;;2603865;54;20026;31
2022/09/07 08:39:54;;;;;;;8.07;3.92;;;23.00;99.90;;;;;;2603809;54;20033;31
2022/09/07 08:42:43;;;;;;;7.20;3.50;;;22.90;99.90;;;;;;2603583;54;20102;31
2022/09/07 08:45:19;;;;;;;7.72;3.15;;;23.10;99.90;;;;;;2603609;54;20093;31
2022/09/07 08:47:53;;;;;;;8.73;3.22;;;23.30;99.90;;;;;;2621748;46;20048;31
2022/09/07 08:50:29;;;;;;;5.95;3.35;;;23.40;99.90;;;;;;2702325;39;20632;31
2022/09/07 08:53:08;;;;;;;7.03;3.35;;;23.60;99.90;;;;;;2621779;46;20932;31
2022/09/07 08:55:45;;;;;;;11.15;3.50;;;23.70;99.90;;;;;;2603411;54;20768;31
2022/09/07 08:58:22;;;;;;;8.80;3.22;;;23.60;99.90;;;;;;2603532;54;20089;31
2022/09/07 09:01:16;;;;;;;8.23;3.85;;;23.90;99.90;;;;;;2603654;54;20876;31
2022/09/07 09:04:10;;;;;;;11.43;3.80;;;24.00;99.90;;;;;;2603341;54;20046;31
2022/09/07 09:06:59;;;;;;;11.68;3.60;;;24.10;99.70;;;;;;2622220;46;20097;31
2022/09/07 09:09:44;;;;;;;7.97;3.20;;;24.10;99.50;;;;;;2603634;54;20026;31
2022/09/07 09:12:23;;;;;;;11.05;3.80;;;24.10;99.60;;;;;;2603719;54;20779;31
2022/09/07 09:15:04;;;;;;;6.37;3.77;;;24.30;99.10;;;;;;2720411;39;20504;31
2022/09/07 09:17:41;;;;;;;7.55;3.40;;;24.10;99.10;;;;;;2622354;46;20274;31
2022/09/07 09:20:20;;;;;;;7.18;3.00;;;24.20;99.90;;;;;;2621354;47;24159;31
2022/09/07 09:22:54;;;;;;;6.72;3.38;;;24.30;99.90;;;;;;2603505;54;20085;31
2022/09/07 09:25:33;;;;;;;8.27;4.10;;;24.30;99.30;;;;;;2603509;54;20115;31
2022/09/07 09:28:09;;;;;;;11.25;4.13;;;24.40;99.50;;;;;;2603074;54;20054;31
2022/09/07 09:30:43;;;;;;;;;;;24.30;98.80;;;;;;2603763;54;20030;31
2022/09/07 09:33:19;;;;;;;6.70;3.30;;;24.30;98.60;;;;;;2622215;46;19935;31
2022/09/07 09:35:53;;;;;;;;;;;24.30;99.30;;;;;;2603748;54;20912;31
2022/09/07 09:38:32;;;;;;;5.90;3.60;;;24.30;99.10;;;;;;2621861;46;20013;31
2022/09/07 09:41:10;;;;;;;7.60;3.97;;;24.40;99.10;;;;;;2603446;54;20073;31
2022/09/07 09:43:47;;;;;;;6.05;3.05;;;24.40;98.80;;;;;;2603396;54;20253;31
2022/09/07 09:46:24;;;;;;;10.05;3.90;;;24.40;98.80;;;;;;2603207;54;20827;31
2022/09/07 09:48:59;;;;;;;8.75;3.40;;;24.40;99.10;;;;;;2621985;46;20828;31
2022/09/07 09:51:35;;;;;;;5.57;3.90;;;24.60;98.70;;;;;;2621886;46;20903;31
2022/09/07 09:54:31;;;;;;;8.17;3.53;;;24.60;99.00;;;;;;2603319;54;20026;31
2022/09/07 09:57:11;;;;;;;7.35;3.60;;;24.60;98.60;;;;;;2621983;46;20030;31
2022/09/07 09:59:45;;;;;;;6.07;3.15;;;24.60;98.20;;;;;;2603449;54;20048;31
2022/09/07 10:02:44;;;;;;;7.00;3.75;;;24.60;98.80;;;;;;2603438;54;20023;31
2022/09/07 10:05:39;;;;;;;8.70;3.67;;;24.70;99.10;;;;;;2621571;46;20858;31
2022/09/07 10:08:18;;;;;;;4.50;3.15;;;24.80;98.60;;;;;;2603405;54;20033;31
2022/09/07 10:10:58;;;;;;;8.50;3.25;;;24.90;98.40;;;;;;2603414;54;20085;31
2022/09/07 10:13:31;;;;;;;8.07;3.63;;;24.80;98.30;;;;;;2603119;54;20026;31
2022/09/07 10:16:08;;;;;;;8.55;4.43;;;24.90;98.80;;;;;;2603133;54;20867;31
2022/09/07 10:18:55;;;;;;;6.05;3.60;;;24.90;98.60;;;;;;2621348;46;20207;31
2022/09/07 10:21:30;;;;;;;9.27;3.92;;;25.00;98.50;;;;;;2622112;46;20056;31
2022/09/07 10:24:15;;;;;;;6.95;3.25;;;25.00;98.00;;;;;;2621411;46;20053;31
2022/09/07 10:26:50;;;;;;;9.30;4.00;;;25.00;98.90;;;;;;2702025;39;21008;31
2022/09/07 10:29:30;;;;;;;7.53;4.03;;;25.10;98.50;;;;;;2603416;54;20053;31
2022/09/07 10:32:22;;;;;;;6.32;4.05;;;25.20;97.70;;;;;;2603233;54;20034;31
2022/09/07 10:34:56;;;;;;;6.40;3.45;;;25.10;97.60;;;;;;2603404;54;20029;31
2022/09/07 10:37:36;;;;;;;5.50;3.47;;;25.20;97.90;;;;;;2622015;46;20844;31
2022/09/07 10:40:21;;;;;;;6.95;3.40;;;25.10;97.90;;;;;;2603350;54;20026;31
2022/09/07 10:42:59;;;;;;;7.10;3.70;;;25.20;98.20;;;;;;2603159;54;20794;31
2022/09/07 10:46:12;;;;;;;5.88;2.95;;;25.10;97.60;;;;;;2603240;54;19962;31
2022/09/07 10:48:54;;;;;;;8.10;3.65;;;25.00;97.80;;;;;;2603020;54;20972;31
2022/09/07 10:51:31;;;;;;;8.52;3.78;;;25.10;98.10;;;;;;2602761;54;20030;31
2022/09/07 10:54:09;;;;;;;7.63;3.47;;;25.00;97.90;;;;;;2603029;54;20023;31
2022/09/07 10:57:08;;;;;;;7.88;3.53;;;25.10;98.60;;;;;;2603220;54;20084;31
2022/09/07 10:59:40;;;;;;;6.88;3.80;;;25.10;98.40;;;;;;2621683;47;20050;31
2022/09/07 11:02:38;;;;;;;9.38;4.00;;;25.10;97.60;;;;;;2602984;54;20864;31
2022/09/07 11:05:12;;;;;;;5.60;3.28;;;25.10;98.10;;;;;;2603419;54;20832;31
2022/09/07 11:07:59;;;;;;;5.90;3.93;;;25.20;98.80;;;;;;2621593;47;20554;31
2022/09/07 11:10:39;;;;;;;7.97;3.50;;;25.30;98.30;;;;;;2603275;54;20273;31
2022/09/07 11:13:14;;;;;;;6.32;3.80;;;25.40;98.70;;;;;;2621679;47;20850;31
2022/09/07 11:15:51;;;;;;;10.25;3.63;;;25.40;98.20;;;;;;2603185;54;20030;31
2022/09/07 11:18:27;;;;;;;7.03;4.20;;;25.40;98.10;;;;;;2621415;47;20023;31
2022/09/07 11:21:02;;;;;;;;;;;25.50;98.70;;;;;;2603285;54;20030;31
2022/09/07 11:23:43;;;;;;;6.75;3.47;;;25.50;98.80;;;;;;2621681;47;19961;31
2022/09/07 11:26:20;;;;;;;7.65;3.40;;;25.50;98.20;;;;;;2603164;54;20038;31
2022/09/07 11:28:55;;;;;;;7.50;3.50;;;25.40;98.10;;;;;;2621489;47;20031;31
2022/09/07 11:31:50;;;;;;;7.40;3.30;;;25.40;98.20;;;;;;2603063;54;20046;31
2022/09/07 11:34:27;;;;;;;5.90;3.75;;;25.50;99.00;;;;;;2602944;54;20034;31
2022/09/07 11:37:04;;;;;;;5.80;3.75;;;25.40;98.10;;;;;;2602786;54;20038;31
2022/09/07 11:39:45;;;;;;;8.00;3.50;;;25.30;98.20;;;;;;2602983;54;20571;31
2022/09/07 11:42:22;;;;;;;5.45;3.50;;;25.40;98.70;;;;;;2603219;54;20030;31
2022/09/07 11:45:17;;;;;;;5.00;3.83;;;25.30;98.40;;;;;;2603717;54;20049;31
2022/09/07 11:47:53;;;;;;;;;;;25.30;98.20;;;;;;2702493;39;20497;31
2022/09/07 11:50:27;;;;;;;5.77;3.40;;;25.30;98.80;;;;;;2622358;46;19935;31
2022/09/07 11:53:04;;;;;;;7.22;3.83;;;25.30;98.60;;;;;;2603998;54;20916;31
2022/09/07 11:55:42;;;;;;;12.13;3.92;;;25.30;98.70;;;;;;2622100;46;20864;31
2022/09/07 11:58:53;;;;;;;7.90;3.47;;;25.20;98.60;;;;;;2702376;39;22506;31
2022/09/07 12:01:34;;;;;;;4.63;3.27;;;25.10;98.70;;;;;;2720411;39;20504;31
2022/09/07 12:04:23;;;;;;;5.00;3.72;;;25.20;99.30;;;;;;2604056;54;20880;31
2022/09/07 12:07:18;;;;;;;7.90;3.75;;;25.20;99.20;;;;;;2603562;54;20086;31
2022/09/07 12:09:52;;;;;;;7.22;3.75;;;25.10;98.90;;;;;;2603303;54;20561;31
2022/09/07 12:12:50;;;;;;;5.07;3.40;;;25.10;99.60;;;;;;2603550;54;20929;31
2022/09/07 12:15:28;;;;;;;6.22;3.50;;;25.10;99.20;;;;;;2603870;54;20860;31
2022/09/07 12:18:16;;;;;;;7.00;3.60;;;25.10;99.20;;;;;;2621905;46;20023;31
2022/09/07 12:20:51;;;;;;;6.45;3.50;;;25.00;99.00;;;;;;2621927;46;20855;31
2022/09/07 12:23:30;;;;;;;4.23;3.43;;;25.10;99.50;;;;;;2603514;54;20787;31
2022/09/07 12:26:34;;;;;;;7.00;3.28;;;25.10;99.70;;;;;;2603738;54;20027;31
2022/09/07 12:31:47;;;;;;;7.97;4.00;;;25.30;99.20;;;;;;2603505;54;20545;31
2022/09/07 12:35:02;;;;;;;7.90;3.72;;;25.20;99.10;;;;;;2603711;54;20053;31
2022/09/07 12:37:42;;;;;;;5.20;4.00;;;25.20;99.60;;;;;;2603517;54;20868;31
2022/09/07 12:40:44;;;;;;;11.23;3.70;;;25.20;99.50;;;;;;2622298;46;20979;31
2022/09/07 12:43:35;;;;;;;5.90;4.00;;;25.10;99.20;;;;;;2603730;54;20097;31
2022/09/07 12:46:12;;;;;;;7.03;3.70;;;25.10;99.80;;;;;;2603344;54;20077;31
2022/09/07 12:48:54;;;;;;;7.45;3.80;;;25.10;99.90;;;;;;2603527;54;20604;31
2022/09/07 12:51:35;;;;;;;4.90;3.35;;;25.10;99.70;;;;;;2603395;54;20030;31
2022/09/07 12:54:32;;;;;;;6.40;3.67;;;25.10;99.90;;;;;;2603480;54;20730;31
2022/09/07 12:57:14;;;;;;;6.25;3.88;;;25.20;99.50;;;;;;2702309;39;21030;31
2022/09/07 13:00:03;;;;;;;6.93;3.40;;;25.20;99.90;;;;;;2603749;54;20026;31
2022/09/07 13:03:00;;;;;;;7.38;3.63;;;25.20;99.90;;;;;;2603490;54;20737;31
2022/09/07 13:05:46;;;;;;;8.43;3.70;;;25.30;99.90;;;;;;2603439;54;20030;31
2022/09/07 13:08:34;;;;;;;5.50;3.42;;;25.30;99.90;;;;;;2603433;54;20821;31
2022/09/07 13:11:19;;;;;;;6.40;4.00;;;25.30;99.90;;;;;;2603449;54;20022;31
2022/09/07 13:13:57;;;;;;;7.75;3.55;;;25.30;99.90;;;;;;2603455;54;20688;31
2022/09/07 13:16:37;;;;;;;15.18;4.30;;;25.20;99.90;;;;;;2603501;54;20105;31
2022/09/07 13:20:03;;;;;;;5.85;3.53;;;25.20;99.90;;;;;;2603815;54;20026;31
2022/09/07 13:22:58;;;;;;;9.20;3.80;;;25.30;99.90;;;;;;2603509;54;20121;31
2022/09/07 13:25:47;;;;;;;6.65;3.65;;;25.30;99.90;;;;;;2622287;46;20030;31
2022/09/07 13:28:26;;;;;;;5.32;3.70;;;25.30;99.90;;;;;;2603510;54;20833;31
2022/09/07 13:31:25;;;;;;;6.82;4.13;;;25.30;99.90;;;;;;2621670;46;20866;31
2022/09/07 13:33:59;;;;;;;5.35;3.75;;;25.30;99.90;;;;;;2622056;46;20093;31
2022/09/07 13:36:40;;;;;;;10.80;4.15;;;25.30;99.90;;;;;;2622317;46;20934;31
2022/09/07 13:39:18;;;;;;;10.80;3.58;;;25.30;99.90;;;;;;2603461;54;20030;31
2022/09/07 13:41:54;;;;;;;6.50;3.45;;;25.30;99.90;;;;;;2603555;54;20845;31
2022/09/07 13:44:31;;;;;;;5.03;3.63;;;25.30;99.90;;;;;;2603586;54;20864;31
2022/09/07 13:47:11;;;;;;;5.88;3.90;;;25.30;99.90;;;;;;2622309;46;20901;31
2022/09/07 13:49:52;;;;;;;5.93;3.80;;;25.30;99.90;;;;;;2603309;54;20155;31
2022/09/07 13:52:33;;;;;;;8.52;4.22;;;25.30;99.90;;;;;;2603267;54;19946;31
2022/09/07 13:55:39;;;;;;;7.72;3.80;;;25.30;99.90;;;;;;2702020;39;20993;31
2022/09/07 13:58:13;;;;;;;5.40;3.55;;;25.30;99.90;;;;;;2701653;39;20588;31
2022/09/07 14:00:54;;;;;;;8.75;3.55;;;25.30;99.90;;;;;;2621681;46;20033;31
2022/09/07 14:03:31;;;;;;;9.07;3.65;;;25.30;99.90;;;;;;2603381;54;20117;31
2022/09/07 14:06:28;;;;;;;5.03;3.95;;;25.30;99.90;;;;;;2621355;46;20089;31
2022/09/07 14:09:06;;;;;;;8.23;3.72;;;25.30;99.90;;;;;;2603514;54;20042;31